Time;durP1;ratioP1;P1;durP2;ratioP2;P2;SDS_P1;SDS_P2;PMS_P1;PMS_P2;Temp;Humidity;BMP_temperature;BMP_pressure;BME280_temperature;BME280_humidity;BME280_pressure;Samples;Min_cycle;Max_cycle;Signal;HPM_P1;HPM_P2
2024/01/22 00:01:26;;;;;;;6.15;3.30;;;9.80;99.90;;;;;;4996021;28;20585;-56
2024/01/22 00:03:52;;;;;;;6.15;3.63;;;9.90;99.90;;;;;;4995610;28;20182;-54
2024/01/22 00:06:18;;;;;;;6.57;3.60;;;10.00;99.90;;;;;;4995644;28;20260;-54
2024/01/22 00:08:43;;;;;;;4.60;3.45;;;10.00;99.90;;;;;;4995646;28;20660;-54
2024/01/22 00:11:10;;;;;;;6.10;3.45;;;10.00;99.90;;;;;;4995831;28;20181;-53
2024/01/22 00:13:36;;;;;;;7.00;3.35;;;10.00;99.90;;;;;;4995547;28;20671;-53
2024/01/22 00:16:02;;;;;;;4.57;3.10;;;10.10;99.90;;;;;;4995581;28;20200;-54
2024/01/22 00:18:28;;;;;;;4.30;3.03;;;10.00;99.90;;;;;;4995348;28;20178;-55
2024/01/22 00:20:53;;;;;;;4.70;2.97;;;10.10;99.90;;;;;;4995404;28;20260;-55
2024/01/22 00:23:19;;;;;;;5.10;3.20;;;10.20;99.90;;;;;;4994833;28;20209;-54
2024/01/22 00:25:45;;;;;;;6.80;3.33;;;10.20;99.90;;;;;;4995483;28;20277;-54
2024/01/22 00:28:10;;;;;;;5.55;3.45;;;10.30;99.90;;;;;;4995402;28;20189;-54
2024/01/22 00:30:36;;;;;;;4.28;3.22;;;10.30;99.90;;;;;;4995294;28;20267;-53
2024/01/22 00:33:02;;;;;;;3.47;3.17;;;10.30;99.90;;;;;;4995180;28;20236;-55
2024/01/22 00:35:28;;;;;;;5.75;3.10;;;10.20;99.90;;;;;;4994987;28;20650;-53
2024/01/22 00:37:54;;;;;;;3.50;2.60;;;10.30;99.90;;;;;;4994985;28;20593;-55
2024/01/22 00:40:19;;;;;;;5.57;2.97;;;10.30;99.90;;;;;;4995008;28;20173;-55
2024/01/22 00:42:45;;;;;;;6.30;3.22;;;10.40;99.90;;;;;;4995033;28;20215;-55
2024/01/22 00:45:11;;;;;;;3.70;2.75;;;10.40;99.90;;;;;;4995014;28;20185;-55
2024/01/22 00:47:37;;;;;;;6.18;2.85;;;10.40;99.90;;;;;;4994940;28;20170;-51
2024/01/22 00:50:04;;;;;;;4.50;3.03;;;10.50;99.90;;;;;;4994700;28;20171;-54
2024/01/22 00:52:29;;;;;;;3.75;2.65;;;10.40;99.90;;;;;;4995024;28;20208;-55
2024/01/22 00:54:55;;;;;;;4.18;2.38;;;10.50;99.90;;;;;;4994883;28;20182;-55
2024/01/22 00:57:21;;;;;;;2.50;2.10;;;10.60;99.90;;;;;;4994828;28;20252;-55
2024/01/22 00:59:46;;;;;;;3.17;2.33;;;10.40;99.90;;;;;;4994547;28;20185;-55
2024/01/22 01:02:12;;;;;;;4.05;2.20;;;10.50;99.90;;;;;;4994453;28;20229;-53
2024/01/22 01:04:38;;;;;;;3.33;2.40;;;10.50;99.90;;;;;;4994485;28;20201;-55
2024/01/22 01:07:04;;;;;;;3.80;2.13;;;10.60;99.90;;;;;;4993554;28;20173;-54
2024/01/22 01:09:29;;;;;;;4.28;2.60;;;10.60;99.90;;;;;;4994501;28;20181;-54
2024/01/22 01:11:55;;;;;;;3.25;2.30;;;10.70;99.90;;;;;;4994589;28;20181;-54
2024/01/22 01:14:20;;;;;;;2.70;1.95;;;10.60;99.90;;;;;;4994407;28;20637;-54
2024/01/22 01:16:46;;;;;;;4.57;2.20;;;10.60;99.90;;;;;;4994459;28;20212;-56
2024/01/22 01:19:12;;;;;;;3.75;2.05;;;10.60;99.90;;;;;;4994249;28;20176;-54
2024/01/22 01:21:38;;;;;;;3.25;1.90;;;10.60;99.90;;;;;;4994419;28;20201;-55
2024/01/22 01:24:04;;;;;;;4.22;2.03;;;10.70;99.90;;;;;;4994430;28;20188;-56
2024/01/22 01:26:30;;;;;;;3.92;2.20;;;10.70;99.90;;;;;;4994226;28;20170;-55
2024/01/22 01:28:55;;;;;;;3.03;1.73;;;10.80;99.90;;;;;;4994210;28;20178;-53
2024/01/22 01:31:21;;;;;;;2.13;1.90;;;10.90;99.90;;;;;;4994108;28;20208;-54
2024/01/22 01:33:47;;;;;;;2.33;2.05;;;10.80;99.90;;;;;;4993665;28;20639;-51
2024/01/22 01:36:12;;;;;;;3.60;2.00;;;10.90;99.90;;;;;;4993462;28;20257;-55
2024/01/22 01:38:38;;;;;;;2.78;1.67;;;11.00;99.90;;;;;;4994255;28;20265;-53
2024/01/22 01:41:04;;;;;;;1.60;1.50;;;11.00;99.90;;;;;;4994114;28;20187;-53
2024/01/22 01:43:30;;;;;;;2.40;1.70;;;10.80;99.90;;;;;;4993974;28;20311;-54
2024/01/22 01:45:56;;;;;;;2.13;1.80;;;10.80;99.90;;;;;;4993961;28;20284;-54
2024/01/22 01:48:22;;;;;;;3.58;1.60;;;10.90;99.90;;;;;;4993875;28;20177;-54
2024/01/22 01:50:48;;;;;;;3.65;1.85;;;10.90;99.90;;;;;;4994086;28;20227;-54
2024/01/22 01:53:14;;;;;;;1.73;1.50;;;10.90;99.90;;;;;;4994038;28;20182;-54
2024/01/22 01:55:41;;;;;;;2.00;1.73;;;10.90;99.90;;;;;;4993906;28;20208;-55
2024/01/22 01:58:06;;;;;;;3.03;1.70;;;11.00;99.90;;;;;;4993984;28;20173;-54
2024/01/22 02:00:33;;;;;;;1.45;1.30;;;11.10;99.90;;;;;;4993781;28;20620;-54
2024/01/22 02:02:58;;;;;;;2.42;1.45;;;11.00;99.90;;;;;;4993638;28;20608;-55
2024/01/22 02:05:24;;;;;;;3.35;1.77;;;11.00;99.90;;;;;;4993900;28;20177;-55
2024/01/22 02:07:50;;;;;;;3.03;1.58;;;10.90;99.90;;;;;;4993950;28;20189;-54
2024/01/22 02:10:15;;;;;;;2.50;1.77;;;11.00;99.90;;;;;;4993824;28;20231;-55
2024/01/22 02:12:41;;;;;;;2.05;1.50;;;11.00;99.90;;;;;;4993789;28;20273;-55
2024/01/22 02:15:08;;;;;;;1.83;1.50;;;10.90;99.90;;;;;;4993668;28;20173;-54
2024/01/22 02:17:33;;;;;;;3.45;1.63;;;10.90;99.90;;;;;;4993647;28;20197;-55
2024/01/22 02:19:59;;;;;;;2.17;1.45;;;11.00;99.90;;;;;;4993823;28;20208;-53
2024/01/22 02:22:25;;;;;;;3.50;1.88;;;10.90;99.90;;;;;;4993681;28;20671;-54
2024/01/22 02:24:50;;;;;;;2.30;1.70;;;10.90;99.90;;;;;;4993751;28;20173;-54
2024/01/22 02:27:17;;;;;;;2.53;1.58;;;11.00;99.90;;;;;;4993671;28;20188;-53
2024/01/22 02:29:43;;;;;;;1.83;1.70;;;11.00;99.90;;;;;;4993627;28;20265;-52
2024/01/22 02:32:08;;;;;;;2.17;1.65;;;11.00;99.90;;;;;;4993522;28;20212;-52
2024/01/22 02:34:34;;;;;;;2.10;1.52;;;11.00;99.90;;;;;;4993751;28;20181;-55
2024/01/22 02:37:00;;;;;;;2.90;1.67;;;11.00;99.90;;;;;;4993662;28;20196;-55
2024/01/22 02:39:26;;;;;;;2.17;1.67;;;10.90;99.90;;;;;;4993611;28;20220;-51
2024/01/22 02:41:51;;;;;;;2.03;1.55;;;10.90;99.90;;;;;;4993508;28;20223;-54
2024/01/22 02:44:17;;;;;;;3.80;1.95;;;10.90;99.90;;;;;;4993456;28;20188;-55
2024/01/22 02:46:42;;;;;;;2.08;1.50;;;10.90;99.90;;;;;;4995372;28;20201;-56
2024/01/22 02:49:09;;;;;;;2.75;1.85;;;10.90;99.90;;;;;;4997332;28;20248;-52
2024/01/22 02:51:35;;;;;;;3.50;1.80;;;10.80;99.90;;;;;;4997238;28;20272;-55
2024/01/22 02:54:02;;;;;;;1.73;1.63;;;10.80;99.90;;;;;;4997155;28;20296;-55
2024/01/22 02:56:27;;;;;;;2.15;1.80;;;10.70;99.90;;;;;;4997019;28;20261;-54
2024/01/22 02:58:53;;;;;;;2.30;1.70;;;10.70;99.90;;;;;;4997025;28;20205;-55
2024/01/22 03:01:19;;;;;;;3.33;2.30;;;10.80;99.90;;;;;;4996872;28;20387;-55
2024/01/22 03:03:45;;;;;;;3.38;1.98;;;10.80;99.90;;;;;;4997012;28;20626;-55
2024/01/22 03:06:10;;;;;;;2.22;1.70;;;10.70;99.90;;;;;;4996940;28;20270;-55
2024/01/22 03:08:36;;;;;;;1.75;1.65;;;10.70;99.90;;;;;;4996938;28;20181;-55
2024/01/22 03:11:02;;;;;;;1.65;1.40;;;10.70;99.90;;;;;;4996811;28;20170;-50
2024/01/22 03:13:28;;;;;;;1.67;1.45;;;10.70;99.90;;;;;;4996777;28;20188;-55
2024/01/22 03:15:54;;;;;;;3.25;1.85;;;10.70;99.90;;;;;;4996577;28;20173;-53
2024/01/22 03:18:19;;;;;;;1.90;1.67;;;10.70;99.90;;;;;;4996843;28;20181;-53
2024/01/22 03:20:45;;;;;;;2.75;1.50;;;10.70;99.90;;;;;;4996742;28;20177;-54
2024/01/22 03:23:10;;;;;;;1.35;1.25;;;10.70;99.90;;;;;;4996601;28;20224;-54
2024/01/22 03:25:36;;;;;;;4.22;1.52;;;10.70;99.90;;;;;;4996573;28;20180;-54
2024/01/22 03:28:02;;;;;;;2.78;1.40;;;10.90;99.90;;;;;;4996416;28;20169;-54
2024/01/22 03:30:27;;;;;;;2.63;1.50;;;10.80;99.90;;;;;;4996365;28;20293;-55
2024/01/22 03:32:53;;;;;;;2.22;1.50;;;10.90;99.90;;;;;;4996280;28;20654;-51
2024/01/22 03:35:20;;;;;;;1.83;1.25;;;10.90;99.90;;;;;;4996483;28;20177;-54
2024/01/22 03:37:46;;;;;;;1.63;1.33;;;10.90;99.90;;;;;;4996265;28;20213;-54
2024/01/22 03:40:12;;;;;;;1.92;1.30;;;11.00;99.90;;;;;;4996654;28;20212;-53
2024/01/22 03:42:37;;;;;;;2.00;1.15;;;11.00;99.90;;;;;;4996080;28;20355;-55
2024/01/22 03:45:03;;;;;;;2.42;1.40;;;11.10;99.90;;;;;;4996091;28;20183;-53
2024/01/22 03:47:29;;;;;;;2.00;1.40;;;11.10;99.90;;;;;;4996306;28;20173;-51
2024/01/22 03:49:55;;;;;;;3.10;1.35;;;11.10;99.90;;;;;;4996164;28;20174;-55
2024/01/22 03:52:21;;;;;;;1.88;1.20;;;11.20;99.90;;;;;;4996114;28;20177;-54
2024/01/22 03:54:47;;;;;;;2.10;1.30;;;11.30;99.90;;;;;;4996149;28;20189;-54
2024/01/22 03:57:13;;;;;;;2.80;1.17;;;11.30;99.90;;;;;;4995058;28;20177;-53
2024/01/22 03:59:39;;;;;;;2.13;1.00;;;11.40;99.90;;;;;;4995549;28;20673;-55
2024/01/22 04:02:05;;;;;;;2.00;1.23;;;11.30;99.90;;;;;;4995539;28;20240;-55
2024/01/22 04:04:31;;;;;;;2.58;1.17;;;11.30;99.90;;;;;;4995872;28;20170;-54
2024/01/22 04:06:56;;;;;;;2.35;1.17;;;11.40;99.90;;;;;;4995702;28;20359;-54
2024/01/22 04:09:22;;;;;;;1.90;1.13;;;11.40;99.90;;;;;;4995821;28;20173;-54
2024/01/22 04:11:48;;;;;;;1.25;1.10;;;11.50;99.90;;;;;;4995656;28;20177;-51
2024/01/22 04:14:14;;;;;;;2.42;1.20;;;11.50;99.90;;;;;;4995477;28;20178;-53
2024/01/22 04:16:39;;;;;;;2.65;1.23;;;11.50;99.90;;;;;;4995506;28;20189;-55
2024/01/22 04:19:05;;;;;;;2.45;1.17;;;11.50;99.90;;;;;;4995512;28;20208;-54
2024/01/22 04:21:31;;;;;;;2.65;1.25;;;11.50;99.90;;;;;;4995697;28;20174;-55
2024/01/22 04:23:57;;;;;;;2.33;1.30;;;11.60;99.90;;;;;;4995386;28;20216;-52
2024/01/22 04:26:22;;;;;;;2.97;1.08;;;11.50;99.90;;;;;;4995378;28;20185;-54
2024/01/22 04:28:48;;;;;;;2.22;1.00;;;11.60;99.90;;;;;;4995248;28;20193;-54
2024/01/22 04:31:14;;;;;;;2.25;0.90;;;11.60;99.90;;;;;;4995247;28;20508;-53
2024/01/22 04:33:43;;;;;;;1.65;1.20;;;11.50;99.90;;;;;;4995405;28;20174;-54
2024/01/22 04:36:09;;;;;;;2.25;1.05;;;11.60;99.90;;;;;;4995124;28;20177;-55
2024/01/22 04:38:35;;;;;;;2.33;1.27;;;11.60;99.90;;;;;;4995069;28;20619;-54
2024/01/22 04:41:01;;;;;;;1.80;1.15;;;11.70;99.90;;;;;;4995102;28;20174;-51
2024/01/22 04:43:26;;;;;;;1.98;1.23;;;11.60;99.90;;;;;;4994845;28;20205;-54
2024/01/22 04:45:52;;;;;;;3.70;1.13;;;11.60;99.90;;;;;;4995013;28;20192;-55
2024/01/22 04:48:18;;;;;;;2.63;1.30;;;11.60;99.90;;;;;;4995256;28;20181;-54
2024/01/22 04:50:43;;;;;;;2.85;1.23;;;11.60;99.90;;;;;;4995055;28;20260;-54
2024/01/22 04:53:09;;;;;;;2.17;1.55;;;11.60;99.90;;;;;;4994920;28;20211;-55
2024/01/22 04:55:35;;;;;;;2.58;1.20;;;11.50;99.90;;;;;;4977375;28;20184;-53
2024/01/22 04:58:00;;;;;;;2.65;1.38;;;11.50;99.90;;;;;;4994724;28;20185;-52
2024/01/22 05:00:26;;;;;;;2.75;1.38;;;11.40;99.90;;;;;;4994497;28;20169;-54
2024/01/22 05:02:52;;;;;;;4.25;1.60;;;11.30;99.90;;;;;;4994800;28;20220;-52
2024/01/22 05:05:18;;;;;;;4.43;1.80;;;11.30;99.90;;;;;;4994735;28;20203;-54
2024/01/22 05:07:43;;;;;;;2.20;1.40;;;11.20;99.90;;;;;;4994650;28;20177;-53
2024/01/22 05:10:09;;;;;;;5.05;1.95;;;11.20;99.90;;;;;;4994363;28;20197;-56
2024/01/22 05:12:39;;;;;;;2.83;1.60;;;11.20;99.90;;;;;;4994475;28;20181;-54
2024/01/22 05:15:05;;;;;;;3.58;1.70;;;11.30;99.90;;;;;;4994391;28;20173;-53
2024/01/22 05:17:32;;;;;;;3.20;1.90;;;11.20;99.90;;;;;;4994500;28;20635;-53
2024/01/22 05:19:58;;;;;;;7.20;2.17;;;11.10;99.90;;;;;;4994496;28;20181;-54
2024/01/22 05:22:24;;;;;;;4.00;1.75;;;11.20;99.90;;;;;;4994492;28;20296;-54
2024/01/22 05:24:49;;;;;;;4.57;2.05;;;11.20;99.90;;;;;;4994362;28;20283;-54
2024/01/22 05:27:15;;;;;;;2.97;1.95;;;11.10;99.90;;;;;;4994255;28;20166;-54
2024/01/22 05:29:42;;;;;;;3.88;1.95;;;11.10;99.90;;;;;;4994451;28;20181;-50
2024/01/22 05:32:07;;;;;;;3.63;1.85;;;11.10;99.90;;;;;;4994404;28;20184;-55
2024/01/22 05:34:33;;;;;;;4.43;2.10;;;11.10;99.90;;;;;;4994215;28;20190;-55
2024/01/22 05:36:59;;;;;;;3.78;2.00;;;11.00;99.90;;;;;;4994236;28;20173;-54
2024/01/22 05:39:26;;;;;;;5.75;2.53;;;11.00;99.90;;;;;;4992899;28;20260;-55
2024/01/22 05:41:52;;;;;;;3.60;2.00;;;11.00;99.90;;;;;;4993944;28;20181;-51
2024/01/22 05:44:17;;;;;;;6.22;1.98;;;11.10;99.90;;;;;;4985491;28;20194;-54
2024/01/22 05:46:43;;;;;;;2.53;1.65;;;11.10;99.90;;;;;;4988209;28;20174;-54
2024/01/22 05:49:10;;;;;;;4.82;1.90;;;11.10;99.90;;;;;;4974491;28;20178;-54
2024/01/22 05:51:36;;;;;;;3.20;1.83;;;11.10;99.90;;;;;;4974588;28;20185;-58
2024/01/22 05:54:02;;;;;;;2.10;1.77;;;11.10;99.90;;;;;;4974626;28;20174;-55
2024/01/22 05:56:28;;;;;;;2.92;1.80;;;11.00;99.90;;;;;;4974508;28;20615;-55
2024/01/22 05:58:55;;;;;;;2.90;1.33;;;11.10;99.90;;;;;;4974660;28;20228;-56
2024/01/22 06:01:21;;;;;;;1.70;1.20;;;11.10;99.90;;;;;;4974503;28;20213;-56
2024/01/22 06:03:47;;;;;;;1.42;1.25;;;11.10;99.90;;;;;;4974532;28;20205;-55
2024/01/22 06:06:16;;;;;;;3.08;1.65;;;11.00;99.90;;;;;;4974543;28;20178;-58
2024/01/22 06:08:46;;;;;;;1.70;1.60;;;11.00;99.90;;;;;;4974540;28;20637;-58
2024/01/22 06:11:13;;;;;;;2.00;1.80;;;11.10;99.90;;;;;;4974360;28;20261;-58
2024/01/22 06:13:39;;;;;;;2.38;1.40;;;11.10;99.90;;;;;;4974317;28;20170;-58
2024/01/22 06:16:12;;;;;;;1.73;1.55;;;11.00;99.90;;;;;;4974394;28;20170;-58
2024/01/22 06:18:45;;;;;;;3.13;1.58;;;11.00;99.90;;;;;;4974434;28;20579;-59
2024/01/22 06:21:12;;;;;;;2.30;1.67;;;11.00;99.90;;;;;;4975665;28;20247;-59
2024/01/22 06:23:38;;;;;;;4.78;1.77;;;11.00;99.90;;;;;;4978020;28;20296;-59
2024/01/22 06:26:05;;;;;;;1.77;1.17;;;11.00;99.90;;;;;;4978418;28;20569;-59
2024/01/22 06:28:31;;;;;;;1.55;1.35;;;11.00;99.90;;;;;;4978351;28;20174;-58
2024/01/22 06:30:58;;;;;;;3.63;1.27;;;11.10;99.90;;;;;;4978176;28;20201;-59
2024/01/22 06:33:24;;;;;;;2.22;1.23;;;11.10;99.90;;;;;;4978129;28;20220;-58
2024/01/22 06:35:50;;;;;;;2.33;1.17;;;11.00;99.90;;;;;;4978120;28;20549;-59
2024/01/22 06:38:19;;;;;;;3.33;1.30;;;11.10;99.90;;;;;;4977963;28;20217;-59
2024/01/22 06:40:45;;;;;;;3.45;1.10;;;11.00;99.90;;;;;;4978186;28;20259;-59
2024/01/22 06:43:11;;;;;;;4.15;1.40;;;11.00;99.90;;;;;;4977954;28;20261;-59
2024/01/22 06:45:37;;;;;;;1.75;1.10;;;11.00;99.90;;;;;;4977996;28;20184;-59
2024/01/22 06:48:03;;;;;;;3.15;1.20;;;11.00;99.90;;;;;;4977794;28;20178;-57
2024/01/22 06:50:29;;;;;;;3.58;1.40;;;11.10;99.90;;;;;;4977801;28;20170;-57
2024/01/22 06:52:55;;;;;;;3.50;1.40;;;11.10;99.90;;;;;;4977603;28;20197;-57
2024/01/22 06:55:22;;;;;;;6.20;2.17;;;11.00;99.90;;;;;;4977861;28;20619;-57
2024/01/22 06:57:47;;;;;;;6.35;2.22;;;11.10;99.90;;;;;;4977808;28;20183;-57
2024/01/22 07:00:15;;;;;;;7.38;2.00;;;11.00;99.90;;;;;;4977468;28;20167;-57
2024/01/22 07:02:43;;;;;;;7.93;2.20;;;11.10;99.90;;;;;;4977526;28;20220;-57
2024/01/22 07:05:10;;;;;;;11.90;3.05;;;11.20;99.90;;;;;;4977500;28;20184;-57
2024/01/22 07:07:37;;;;;;;10.25;2.97;;;11.20;99.90;;;;;;4977347;28;20173;-57
2024/01/22 07:10:05;;;;;;;19.42;3.72;;;11.20;99.90;;;;;;4977347;28;20638;-57
2024/01/22 07:12:31;;;;;;;14.32;3.58;;;11.20;99.90;;;;;;4977567;28;20267;-57
2024/01/22 07:14:57;;;;;;;16.42;4.15;;;11.20;99.90;;;;;;4977739;28;20266;-57
2024/01/22 07:17:23;;;;;;;20.65;5.70;;;11.20;99.90;;;;;;4977333;28;20185;-57
2024/01/22 07:19:48;;;;;;;18.88;4.55;;;11.20;99.90;;;;;;4977180;28;20173;-57
2024/01/22 07:22:14;;;;;;;21.65;5.88;;;11.20;99.90;;;;;;4977169;28;20202;-57
2024/01/22 07:24:40;;;;;;;20.58;5.20;;;11.20;99.90;;;;;;4977300;28;20200;-57
2024/01/22 07:27:06;;;;;;;24.15;6.05;;;11.20;99.90;;;;;;4977205;28;20637;-57
2024/01/22 07:29:31;;;;;;;26.10;6.22;;;11.10;99.90;;;;;;4977081;28;20220;-57
2024/01/22 07:31:57;;;;;;;23.75;6.53;;;11.10;99.90;;;;;;4976943;28;20269;-57
2024/01/22 07:34:23;;;;;;;29.70;6.82;;;11.10;99.90;;;;;;4976951;28;20170;-56
2024/01/22 07:36:49;;;;;;;31.05;7.40;;;11.10;99.90;;;;;;4976865;28;20177;-57
2024/01/22 07:39:15;;;;;;;34.35;7.70;;;11.10;99.90;;;;;;4976939;28;20212;-56
2024/01/22 07:41:41;;;;;;;33.05;7.82;;;11.10;99.90;;;;;;4976817;28;20201;-57
2024/01/22 07:44:07;;;;;;;30.90;7.45;;;11.10;99.90;;;;;;4976906;28;20540;-57
2024/01/22 07:46:34;;;;;;;29.25;6.55;;;11.10;99.90;;;;;;4976669;28;20611;-57
2024/01/22 07:49:00;;;;;;;31.55;7.38;;;11.10;99.90;;;;;;4976783;28;20170;-56
2024/01/22 07:51:26;;;;;;;32.10;6.75;;;11.20;99.90;;;;;;4976605;28;20213;-57
2024/01/22 07:53:51;;;;;;;32.67;7.50;;;11.20;99.90;;;;;;4976799;28;20177;-57
2024/01/22 07:56:17;;;;;;;39.30;8.50;;;11.10;99.90;;;;;;4976738;28;20178;-57
2024/01/22 07:58:44;;;;;;;29.35;7.63;;;11.20;99.90;;;;;;4976493;28;20174;-58
2024/01/22 08:01:09;;;;;;;31.80;7.60;;;11.10;99.90;;;;;;4976467;28;20583;-57
2024/01/22 08:03:35;;;;;;;29.30;7.95;;;11.10;99.90;;;;;;4976301;28;20289;-57
2024/01/22 08:06:01;;;;;;;33.80;8.82;;;11.00;99.90;;;;;;4976312;28;20272;-58
2024/01/22 08:08:30;;;;;;;29.52;7.22;;;11.00;99.90;;;;;;4976455;28;20182;-57
2024/01/22 08:10:56;;;;;;;31.30;6.72;;;11.00;99.90;;;;;;4976414;28;20591;-58
2024/01/22 08:13:22;;;;;;;33.78;7.45;;;11.10;99.90;;;;;;4976270;28;20213;-57
2024/01/22 08:15:48;;;;;;;25.65;6.85;;;11.20;99.90;;;;;;4976102;28;20183;-55
2024/01/22 08:18:15;;;;;;;28.15;6.35;;;11.20;99.90;;;;;;4976156;28;20177;-58
2024/01/22 08:20:41;;;;;;;27.65;6.78;;;11.00;99.90;;;;;;4976336;28;20217;-57
2024/01/22 08:23:08;;;;;;;25.20;6.53;;;11.10;99.90;;;;;;4976133;28;20209;-57
2024/01/22 08:25:34;;;;;;;30.25;7.75;;;11.20;99.90;;;;;;4976110;28;20268;-57
2024/01/22 08:28:00;;;;;;;38.95;8.43;;;11.20;99.90;;;;;;4975987;28;20671;-57
2024/01/22 08:30:26;;;;;;;28.48;9.05;;;11.10;99.90;;;;;;4975946;28;20650;-57
2024/01/22 08:32:52;;;;;;;37.38;8.35;;;11.00;99.90;;;;;;4975922;28;20209;-57
2024/01/22 08:35:19;;;;;;;41.03;8.45;;;11.00;99.90;;;;;;4975696;28;20256;-57
2024/01/22 08:37:50;;;;;;;38.72;9.27;;;11.20;99.90;;;;;;4962313;28;20175;-59
2024/01/22 08:40:17;;;;;;;39.40;8.18;;;11.10;99.90;;;;;;4956425;28;20222;-57
2024/01/22 08:42:46;;;;;;;31.58;7.80;;;11.10;99.90;;;;;;4956422;28;20292;-57
2024/01/22 08:45:12;;;;;;;29.27;7.28;;;11.10;99.90;;;;;;4955847;28;20185;-58
2024/01/22 08:47:37;;;;;;;34.22;6.28;;;11.20;99.90;;;;;;4956176;28;20178;-56
2024/01/22 08:50:04;;;;;;;26.98;6.93;;;11.10;99.90;;;;;;4956538;28;20603;-57
2024/01/22 08:52:30;;;;;;;31.73;6.40;;;11.10;99.90;;;;;;4956351;28;20179;-57
2024/01/22 08:54:56;;;;;;;38.35;7.25;;;11.10;99.90;;;;;;4956713;28;20207;-57
2024/01/22 08:57:22;;;;;;;33.65;7.28;;;11.10;99.90;;;;;;4955725;28;20213;-57
2024/01/22 08:59:48;;;;;;;32.97;7.82;;;11.10;99.90;;;;;;4955291;28;20171;-57
2024/01/22 09:02:14;;;;;;;33.70;6.22;;;11.10;99.90;;;;;;4988744;28;20697;-57
2024/01/22 09:04:40;;;;;;;28.98;6.38;;;11.00;99.90;;;;;;4994034;28;20170;-57
2024/01/22 09:07:05;;;;;;;29.88;7.18;;;11.00;99.90;;;;;;4993862;28;20645;-57
2024/01/22 09:09:31;;;;;;;29.65;6.68;;;11.10;99.90;;;;;;4993847;28;20177;-56
2024/01/22 09:11:57;;;;;;;26.17;6.35;;;11.10;99.90;;;;;;4993833;28;20672;-57
2024/01/22 09:14:22;;;;;;;25.38;5.85;;;11.00;99.90;;;;;;4993744;28;20174;-57
2024/01/22 09:16:48;;;;;;;18.85;5.65;;;10.90;99.90;;;;;;4993677;28;20181;-59
2024/01/22 09:19:13;;;;;;;17.33;4.90;;;10.90;99.90;;;;;;4993950;28;20166;-57
2024/01/22 09:21:39;;;;;;;22.38;5.47;;;10.90;99.90;;;;;;4993769;28;20716;-56
2024/01/22 09:24:05;;;;;;;20.20;5.93;;;10.90;99.90;;;;;;4993528;28;20692;-57
2024/01/22 09:26:31;;;;;;;18.60;5.22;;;11.00;99.90;;;;;;4993657;28;20177;-57
2024/01/22 09:28:57;;;;;;;26.08;6.05;;;10.90;99.90;;;;;;4993501;28;20177;-57
2024/01/22 09:31:22;;;;;;;24.77;6.13;;;10.90;99.90;;;;;;4993286;28;20177;-56
2024/01/22 09:33:50;;;;;;;29.95;6.30;;;11.10;99.90;;;;;;4993292;28;20182;-57
2024/01/22 09:36:17;;;;;;;20.60;5.70;;;11.00;99.90;;;;;;4993741;28;20219;-56
2024/01/22 09:38:43;;;;;;;20.55;5.45;;;11.00;99.90;;;;;;4993471;28;20178;-57
2024/01/22 09:41:09;;;;;;;23.70;6.60;;;11.00;99.90;;;;;;4993334;28;20180;-59
2024/01/22 09:43:37;;;;;;;38.38;7.70;;;10.90;99.90;;;;;;4993159;28;20721;-56
2024/01/22 09:46:03;;;;;;;32.00;7.10;;;10.90;99.90;;;;;;4993187;28;20169;-56
2024/01/22 09:48:32;;;;;;;32.67;7.50;;;10.90;99.90;;;;;;4993715;28;20189;-56
2024/01/22 09:51:00;;;;;;;33.47;7.88;;;10.90;99.90;;;;;;4993193;28;20653;-59
2024/01/22 09:53:28;;;;;;;38.92;8.32;;;10.90;99.90;;;;;;4993263;28;20263;-58
2024/01/22 09:55:56;;;;;;;38.25;9.45;;;10.90;99.90;;;;;;4992332;28;20522;-58
2024/01/22 09:58:27;;;;;;;41.60;8.50;;;11.00;99.90;;;;;;4992763;28;20165;-58
2024/01/22 10:00:53;;;;;;;37.50;8.80;;;11.00;99.90;;;;;;4993022;28;20248;-58
2024/01/22 10:03:20;;;;;;;44.92;8.80;;;11.00;99.90;;;;;;4993127;28;20350;-59
2024/01/22 10:05:48;;;;;;;47.00;10.32;;;11.10;99.90;;;;;;4993192;28;20181;-58
2024/01/22 10:08:14;;;;;;;36.45;9.60;;;11.20;99.90;;;;;;4993090;28;20177;-59
2024/01/22 10:10:39;;;;;;;47.47;11.05;;;11.20;99.90;;;;;;4993087;28;20220;-59
2024/01/22 10:13:07;;;;;;;37.90;8.30;;;11.10;99.90;;;;;;4992912;28;20610;-59
2024/01/22 10:15:34;;;;;;;40.72;9.65;;;11.10;99.90;;;;;;4993007;28;20284;-58
2024/01/22 10:18:14;;;;;;;38.60;8.95;;;11.10;99.90;;;;;;4992928;28;20173;-58
2024/01/22 10:20:41;;;;;;;39.22;9.73;;;11.00;99.90;;;;;;4992945;28;20173;-59
2024/01/22 10:23:08;;;;;;;33.47;10.45;;;11.00;99.90;;;;;;4992697;28;20565;-58
2024/01/22 10:25:34;;;;;;;33.00;9.18;;;11.00;99.90;;;;;;4992650;28;20206;-58
2024/01/22 10:28:17;;;;;;;39.50;9.15;;;10.90;99.90;;;;;;4992899;28;20170;-58
2024/01/22 10:30:44;;;;;;;36.42;9.48;;;11.00;99.90;;;;;;4992870;28;20247;-58
2024/01/22 10:33:16;;;;;;;40.33;9.00;;;11.00;99.90;;;;;;4992719;28;20191;-58
2024/01/22 10:35:43;;;;;;;40.55;9.73;;;10.90;99.90;;;;;;4992731;28;20612;-58
2024/01/22 10:38:13;;;;;;;39.63;9.93;;;11.00;99.90;;;;;;4992536;28;20181;-57
2024/01/22 10:40:40;;;;;;;38.53;9.95;;;11.00;99.90;;;;;;4992715;28;20178;-58
2024/01/22 10:43:24;;;;;;;36.30;9.82;;;10.90;99.90;;;;;;4992551;28;20232;-57
2024/01/22 10:45:50;;;;;;;39.55;9.45;;;10.80;99.90;;;;;;4992708;28;20559;-58
2024/01/22 10:48:17;;;;;;;40.95;9.07;;;10.80;99.90;;;;;;4992627;28;20174;-57
2024/01/22 10:50:43;;;;;;;39.13;10.05;;;10.80;99.90;;;;;;4992506;28;20589;-58
2024/01/22 10:53:10;;;;;;;39.40;8.93;;;10.90;99.90;;;;;;4992721;28;20263;-58
2024/01/22 10:55:38;;;;;;;35.47;8.20;;;10.90;99.90;;;;;;4992917;28;20499;-57
2024/01/22 10:58:14;;;;;;;43.03;9.88;;;10.90;99.90;;;;;;4992610;28;20313;-56
2024/01/22 11:00:43;;;;;;;38.42;10.10;;;10.90;99.90;;;;;;4992550;28;20228;-57
2024/01/22 11:03:12;;;;;;;40.17;10.18;;;10.90;99.90;;;;;;4992184;28;20732;-57
2024/01/22 11:05:44;;;;;;;34.33;10.07;;;10.80;99.90;;;;;;4992486;28;20178;-56
2024/01/22 11:08:15;;;;;;;46.88;11.02;;;10.90;99.90;;;;;;4975553;28;20189;-57
2024/01/22 11:10:44;;;;;;;35.05;9.73;;;10.90;99.90;;;;;;4976040;28;20246;-57
2024/01/22 11:13:15;;;;;;;34.15;9.93;;;10.90;99.90;;;;;;4991851;28;20181;-56
2024/01/22 11:15:42;;;;;;;44.40;10.15;;;10.80;99.90;;;;;;4986912;28;20208;-57
2024/01/22 11:18:09;;;;;;;35.10;10.60;;;10.90;99.90;;;;;;4993374;28;20186;-57
2024/01/22 11:20:37;;;;;;;34.15;8.57;;;11.00;99.90;;;;;;4995674;28;20177;-56
2024/01/22 11:23:05;;;;;;;39.53;9.68;;;11.10;99.90;;;;;;4995526;28;20305;-56
2024/01/22 11:25:33;;;;;;;36.08;9.68;;;11.10;99.90;;;;;;4977139;28;20185;-56
2024/01/22 11:28:12;;;;;;;31.25;8.80;;;11.20;99.90;;;;;;4981580;28;20546;-57
2024/01/22 11:30:42;;;;;;;27.13;8.20;;;11.30;99.90;;;;;;4976042;28;20182;-56
2024/01/22 11:33:25;;;;;;;26.15;7.13;;;11.30;99.90;;;;;;4975804;28;20643;-57
2024/01/22 11:35:52;;;;;;;26.90;7.35;;;11.20;99.90;;;;;;4976106;28;20174;-56
2024/01/22 11:38:51;;;;;;;21.23;6.55;;;11.20;99.90;;;;;;4975883;28;20236;-56
2024/01/22 11:41:33;;;;;;;30.73;7.78;;;11.10;99.90;;;;;;4964377;28;20248;-55
2024/01/22 11:43:59;;;;;;;26.17;6.85;;;11.20;99.90;;;;;;4975869;28;20214;-56
2024/01/22 11:46:26;;;;;;;24.50;6.88;;;11.20;99.90;;;;;;4975774;28;20178;-57
2024/01/22 11:48:53;;;;;;;28.13;7.47;;;11.30;99.90;;;;;;4975721;28;20210;-57
2024/01/22 11:51:25;;;;;;;25.48;6.78;;;11.30;99.90;;;;;;4975464;28;20174;-56
2024/01/22 11:53:56;;;;;;;24.73;7.32;;;11.30;99.90;;;;;;4975746;28;20186;-57
2024/01/22 11:56:22;;;;;;;20.50;5.55;;;11.30;99.90;;;;;;4975917;28;20182;-57
2024/01/22 11:58:58;;;;;;;22.20;6.03;;;11.20;99.90;;;;;;4975424;28;20627;-57
2024/01/22 12:01:24;;;;;;;25.70;6.53;;;11.30;99.90;;;;;;4985692;28;20213;-55
2024/01/22 12:03:50;;;;;;;23.20;6.97;;;11.30;99.90;;;;;;4994209;28;20223;-57
2024/01/22 12:06:15;;;;;;;20.30;6.35;;;11.50;99.90;;;;;;4994697;28;20178;-58
2024/01/22 12:08:41;;;;;;;21.67;6.05;;;11.60;99.90;;;;;;4994938;28;20180;-56
2024/01/22 12:11:13;;;;;;;18.20;6.38;;;11.50;99.90;;;;;;4995065;28;20181;-56
2024/01/22 12:13:43;;;;;;;20.60;6.00;;;11.60;99.90;;;;;;4994708;28;20177;-56
2024/01/22 12:16:16;;;;;;;21.38;5.55;;;11.50;99.90;;;;;;4994833;28;20271;-56
2024/01/22 12:18:43;;;;;;;20.27;6.18;;;11.50;99.90;;;;;;4994042;28;20247;-56
2024/01/22 12:21:12;;;;;;;21.63;6.45;;;11.40;99.90;;;;;;4994869;28;20177;-56
2024/01/22 12:23:39;;;;;;;17.40;6.07;;;11.20;99.90;;;;;;4994731;28;20224;-57
2024/01/22 12:26:21;;;;;;;21.00;6.30;;;11.20;99.90;;;;;;4994587;28;20623;-57
2024/01/22 12:28:53;;;;;;;20.63;6.13;;;11.20;99.90;;;;;;4994179;28;20215;-57
2024/01/22 12:31:20;;;;;;;20.40;5.63;;;11.10;99.90;;;;;;4993515;28;20293;-57
2024/01/22 12:33:46;;;;;;;21.45;5.68;;;11.10;99.90;;;;;;4993379;28;20185;-56
2024/01/22 12:36:15;;;;;;;20.38;5.95;;;11.10;99.90;;;;;;4993986;28;20191;-56
2024/01/22 12:38:51;;;;;;;21.98;6.00;;;11.20;99.90;;;;;;4994469;28;20189;-57
2024/01/22 12:41:18;;;;;;;20.67;5.95;;;11.30;99.90;;;;;;4994275;28;20263;-57